Gentle Leader — C6WY9 — position and weather

sailwx.info

Track history (hours):
 
Tides and Currents Weather Stations Pressure Air Temp Water Temp Dewpoint Dewpoint Depression Visibility Wind Speed Wind Dir Waves Ship Positions

Gentle Leader

Last reported at 2018-May-22 17:28 UTC. Time now 2018-May-22 17:30 UTC.
Position N 51°18' E 003°14'.

Length 200 m; draft 9 m.

Type: Cargo ship. MMSI: 311003300.

Date/timePositionNaut miles runAvg speedWind from/ knotsBaromVisibWave heightAir tempDewpointWater temp
2018-May-22 17:28N 51°18' E 003°14'0 0.0
2018-May-22 16:58N 51°18' E 003°14'0 0.0
2018-May-22 16:22N 51°18' E 003°14'0 0.0
2018-May-22 14:55N 51°18' E 003°14'0 0.0
2018-May-22 14:01N 51°18' E 003°14'0 0.0
2018-May-22 13:55N 51°18' E 003°14'0 0.0
2018-May-22 13:28N 51°18' E 003°14'0 0.0
2018-May-22 12:58N 51°18' E 003°14'0 0.0
2018-May-22 12:28N 51°18' E 003°14'0 0.0
2018-May-22 11:58N 51°18' E 003°14'0 0.0
2018-May-22 10:13N 51°18' E 003°14'0 0.0
2018-May-22 09:55N 51°18' E 003°14'0 0.0
2018-May-22 09:28N 51°18' E 003°14'0 0.0
2018-May-22 08:58N 51°18' E 003°14'0 0.0
2018-May-22 07:31N 51°18' E 003°14'0 0.0
2018-May-22 07:22N 51°18' E 003°14'0 0.0
2018-May-22 06:58N 51°18' E 003°14'0 0.0
2018-May-22 06:25N 51°18' E 003°14'0 0.0
2018-May-22 05:52N 51°18' E 003°14'0 0.0
2018-May-22 05:04N 51°18' E 003°14'0 0.0
2018-May-22 04:58N 51°18' E 003°14'0 0.0
2018-May-22 04:28N 51°18' E 003°14'0 0.0
2018-May-22 03:58N 51°18' E 003°14'0 0.0
2018-May-22 03:16N 51°18' E 003°14'0 0.0
2018-May-22 02:52N 51°18' E 003°14'0 0.0
2018-May-22 02:13N 51°18' E 003°14'0 0.0
2018-May-22 02:00N 51°18' E 003°14'2 3.2
2018-May-22 01:28N 51°20' E 003°13'0 0.3
2018-May-22 00:57N 51°20' E 003°13'0 0.0
2018-May-22 00:30N 51°20' E 003°13'1 2.4
2018-May-22 00:00N 51°21' E 003°12'5 9.2
2018-May-21 23:28N 51°24' E 003°06'4 8.8
2018-May-21 23:01N 51°23' E 002°60'5 9.7
2018-May-21 22:30N 51°22' E 002°52'510.4
2018-May-21 22:01N 51°22' E 002°44'4 8.8
2018-May-21 21:30N 51°22' E 002°37'4 8.2
2018-May-21 20:58N 51°22' E 002°30'511.5
2018-May-21 20:31N 51°20' E 002°22'612.0
2018-May-21 20:01N 51°17' E 002°14'612.7
2018-May-21 19:30N 51°14' E 002°05'713.2
2018-May-21 19:00N 51°10' E 001°56'713.7
2018-May-21 18:30N 51°07' E 001°47'714.7
2018-May-21 18:00N 51°01' E 001°39'815.2
2018-May-21 17:30N 50°55' E 001°31'914.7
2018-May-21 16:55N 50°47' E 001°26'1113.4
2018-May-21 16:06N 50°38' E 001°16'213.1
2018-May-21 15:59N 50°37' E 001°14'1313.3
2018-May-21 15:00N 50°30' E 000°57'713.4
2018-May-21 14:28N 50°28' E 000°46'1014.1
2018-May-21 13:45N 50°24' E 000°32'414.4
2018-May-21 13:29N 50°23' E 000°26'714.5
2018-May-21 13:01N 50°21' E 000°16'714.5
2018-May-21 12:30N 50°18' E 000°05'714.2
2018-May-21 12:01N 50°16' W 000°05'913.8
2018-May-21 11:23N 50°12' W 000°17'513.8
2018-May-21 11:00N 50°09' W 000°25'1313.2
2018-May-21 10:01N 50°04' W 000°43'112.8
2018-May-21 09:55N 50°03' W 000°45'512.7
2018-May-21 09:29N 50°01' W 000°52'714.2
2018-May-21 09:00N 49°58' W 001°02'714.3
2018-May-21 08:30N 49°55' W 001°12'714.2
2018-May-21 08:01N 49°52' W 001°22'713.9
2018-May-21 07:31N 49°49' W 001°32'713.6
2018-May-21 07:00N 49°45' W 001°41'4 7.6
2018-May-21 06:30N 49°44' W 001°46'611.5
2018-May-21 06:00N 49°47' W 001°54'713.1
2018-May-21 05:30N 49°48' W 002°04'714.3
2018-May-21 05:00N 49°51' W 002°14'814.8
2018-May-21 04:30N 49°52' W 002°26'815.0
2018-May-21 03:59N 49°51' W 002°37'714.9
2018-May-21 03:30N 49°49' W 002°48'815.3
2018-May-21 03:00N 49°46' W 002°59'815.3
2018-May-21 02:30N 49°42' W 003°09'815.1
2018-May-21 02:00N 49°38' W 003°19'715.2
2018-May-21 01:31N 49°34' W 003°29'815.0
2018-May-21 01:00N 49°31' W 003°39'815.1
2018-May-21 00:30N 49°27' W 003°50'715.0
2018-May-21 00:00N 49°24' W 003°60'815.1
2018-May-20 23:30N 49°20' W 004°10'815.2
2018-May-20 23:00N 49°17' W 004°20'815.5
2018-May-20 22:30N 49°13' W 004°31'815.7
2018-May-20 22:00N 49°09' W 004°41'815.8
2018-May-20 21:30N 49°06' W 004°52'816.0
2018-May-20 20:59N 49°02' W 005°04'816.1
2018-May-20 20:30N 48°57' W 005°13'816.2
2018-May-20 20:00N 48°53' W 005°23'816.4
2018-May-20 19:30N 48°49' W 005°34'816.2
2018-May-20 19:00N 48°42' W 005°41'816.8
2018-May-20 18:30N 48°35' W 005°47'816.0
2018-May-20 18:00N 48°28' W 005°53'714.1
2018-May-20 17:30N 48°21' W 005°57'816.3
2018-May-20 17:00N 48°14' W 006°03'2317.1
2018-May-20 15:38N 47°53' W 006°19'47910.5
2018-May-18 18:03N 40°19' W 009°51'113.8
2018-May-18 18:00N 40°18' W 009°52'814.2
2018-May-18 17:27N 40°11' W 009°56'614.3
2018-May-18 17:00N 40°05' W 009°59'714.3
2018-May-18 16:30N 39°59' W 010°02'714.2
2018-May-18 16:00N 39°52' W 010°06'1013.9
2018-May-18 15:16N 39°43' W 010°12'413.7
2018-May-18 15:00N 39°40' W 010°14'2113.5
2018-May-18 13:29N 39°21' W 010°26'613.2
2018-May-18 13:00N 39°16' W 010°29'713.3
2018-May-18 12:30N 39°09' W 010°32'713.5
2018-May-18 11:58N 39°03' W 010°35'7614.1
2018-May-18 06:33N 37°51' W 011°11'58415.9
2018-May-16 17:47N 28°50' W 015°32'415.7
2018-May-16 17:31N 28°46' W 015°35'815.7
2018-May-16 17:01N 28°39' W 015°39'915.6
2018-May-16 16:27N 28°32' W 015°44'715.7
2018-May-16 16:00N 28°26' W 015°49'715.5
2018-May-16 15:31N 28°20' W 015°55'815.4
2018-May-16 15:01N 28°15' W 016°00'815.3
2018-May-16 14:30N 28°09' W 016°06'  
2018-May-13 19:27N 10°22' W 017°01'916.1
2018-May-13 18:53N 10°14' W 016°57'616.3
2018-May-13 18:30N 10°09' W 016°54'816.3
2018-May-13 18:01N 10°02' W 016°50'816.4
2018-May-13 17:31N 09°54' W 016°46'816.5
2018-May-13 17:00N 09°47' W 016°42'816.5
2018-May-13 16:31N 09°40' W 016°38'916.1
2018-May-13 15:59N 09°32' W 016°34'816.0
2018-May-13 15:31N 09°25' W 016°31'815.8
2018-May-13 15:00N 09°18' W 016°27'816.2
2018-May-13 14:31N 09°11' W 016°23'816.7
2018-May-13 14:01N 09°04' W 016°19'816.5
2018-May-13 13:31N 08°57' W 016°15'816.4
2018-May-13 13:00N 08°50' W 016°11'1116.5
2018-May-13 12:22N 08°40' W 016°06'1116.5
2018-May-13 11:43N 08°31' W 016°01'416.6
2018-May-13 11:27N 08°27' W 015°59'1016.4
2018-May-13 10:49N 08°18' W 015°54'616.5
2018-May-13 10:26N 08°12' W 015°51'1616.5
2018-May-13 09:26N 07°58' W 015°42'1516.6
2018-May-13 08:30N 07°46' W 015°32'816.7
2018-May-13 08:00N 07°39' W 015°28'1416.4
2018-May-13 07:11N 07°28' W 015°19'316.2
2018-May-13 07:01N 07°26' W 015°18'  
Track history (hours):
 
Tides and Currents Weather Stations Pressure Air Temp Water Temp Dewpoint Dewpoint Depression Visibility Wind Speed Wind Dir Waves Ship Positions

Gentle Leader

Last reported at 2018-May-22 17:28 UTC. Time now 2018-May-22 17:30 UTC.
Position N 51°18' E 003°14'.

Length 200 m; draft 9 m.

Type: Cargo ship. MMSI: 311003300.

Date/timePositionNaut miles runAvg speedWind from/ knotsBaromVisibWave heightAir tempDewpointWater temp
2018-May-22 17:28N 51°18' E 003°14'0 0.0
2018-May-22 16:58N 51°18' E 003°14'0 0.0
2018-May-22 16:22N 51°18' E 003°14'0 0.0
2018-May-22 14:55N 51°18' E 003°14'0 0.0
2018-May-22 14:01N 51°18' E 003°14'0 0.0
2018-May-22 13:55N 51°18' E 003°14'0 0.0
2018-May-22 13:28N 51°18' E 003°14'0 0.0
2018-May-22 12:58N 51°18' E 003°14'0 0.0
2018-May-22 12:28N 51°18' E 003°14'0 0.0
2018-May-22 11:58N 51°18' E 003°14'0 0.0
2018-May-22 10:13N 51°18' E 003°14'0 0.0
2018-May-22 09:55N 51°18' E 003°14'0 0.0
2018-May-22 09:28N 51°18' E 003°14'0 0.0
2018-May-22 08:58N 51°18' E 003°14'0 0.0
2018-May-22 07:31N 51°18' E 003°14'0 0.0
2018-May-22 07:22N 51°18' E 003°14'0 0.0
2018-May-22 06:58N 51°18' E 003°14'0 0.0
2018-May-22 06:25N 51°18' E 003°14'0 0.0
2018-May-22 05:52N 51°18' E 003°14'0 0.0
2018-May-22 05:04N 51°18' E 003°14'0 0.0
2018-May-22 04:58N 51°18' E 003°14'0 0.0
2018-May-22 04:28N 51°18' E 003°14'0 0.0
2018-May-22 03:58N 51°18' E 003°14'0 0.0
2018-May-22 03:16N 51°18' E 003°14'0 0.0
2018-May-22 02:52N 51°18' E 003°14'0 0.0
2018-May-22 02:13N 51°18' E 003°14'0 0.0
2018-May-22 02:00N 51°18' E 003°14'2 3.2
2018-May-22 01:28N 51°20' E 003°13'0 0.3
2018-May-22 00:57N 51°20' E 003°13'0 0.0
2018-May-22 00:30N 51°20' E 003°13'1 2.4
2018-May-22 00:00N 51°21' E 003°12'5 9.2
2018-May-21 23:28N 51°24' E 003°06'4 8.8
2018-May-21 23:01N 51°23' E 002°60'5 9.7
2018-May-21 22:30N 51°22' E 002°52'510.4
2018-May-21 22:01N 51°22' E 002°44'4 8.8
2018-May-21 21:30N 51°22' E 002°37'4 8.2
2018-May-21 20:58N 51°22' E 002°30'511.5
2018-May-21 20:31N 51°20' E 002°22'612.0
2018-May-21 20:01N 51°17' E 002°14'612.7
2018-May-21 19:30N 51°14' E 002°05'713.2
2018-May-21 19:00N 51°10' E 001°56'713.7
2018-May-21 18:30N 51°07' E 001°47'714.7
2018-May-21 18:00N 51°01' E 001°39'815.2
2018-May-21 17:30N 50°55' E 001°31'914.7
2018-May-21 16:55N 50°47' E 001°26'1113.4
2018-May-21 16:06N 50°38' E 001°16'213.1
2018-May-21 15:59N 50°37' E 001°14'1313.3
2018-May-21 15:00N 50°30' E 000°57'713.4
2018-May-21 14:28N 50°28' E 000°46'1014.1
2018-May-21 13:45N 50°24' E 000°32'414.4
2018-May-21 13:29N 50°23' E 000°26'714.5
2018-May-21 13:01N 50°21' E 000°16'714.5
2018-May-21 12:30N 50°18' E 000°05'714.2
2018-May-21 12:01N 50°16' W 000°05'913.8
2018-May-21 11:23N 50°12' W 000°17'513.8
2018-May-21 11:00N 50°09' W 000°25'1313.2
2018-May-21 10:01N 50°04' W 000°43'112.8
2018-May-21 09:55N 50°03' W 000°45'512.7
2018-May-21 09:29N 50°01' W 000°52'714.2
2018-May-21 09:00N 49°58' W 001°02'714.3
2018-May-21 08:30N 49°55' W 001°12'714.2
2018-May-21 08:01N 49°52' W 001°22'713.9
2018-May-21 07:31N 49°49' W 001°32'713.6
2018-May-21 07:00N 49°45' W 001°41'4 7.6
2018-May-21 06:30N 49°44' W 001°46'611.5
2018-May-21 06:00N 49°47' W 001°54'713.1
2018-May-21 05:30N 49°48' W 002°04'714.3
2018-May-21 05:00N 49°51' W 002°14'814.8
2018-May-21 04:30N 49°52' W 002°26'815.0
2018-May-21 03:59N 49°51' W 002°37'714.9
2018-May-21 03:30N 49°49' W 002°48'815.3
2018-May-21 03:00N 49°46' W 002°59'815.3
2018-May-21 02:30N 49°42' W 003°09'815.1
2018-May-21 02:00N 49°38' W 003°19'715.2
2018-May-21 01:31N 49°34' W 003°29'815.0
2018-May-21 01:00N 49°31' W 003°39'815.1
2018-May-21 00:30N 49°27' W 003°50'715.0
2018-May-21 00:00N 49°24' W 003°60'815.1
2018-May-20 23:30N 49°20' W 004°10'815.2
2018-May-20 23:00N 49°17' W 004°20'815.5
2018-May-20 22:30N 49°13' W 004°31'815.7
2018-May-20 22:00N 49°09' W 004°41'815.8
2018-May-20 21:30N 49°06' W 004°52'816.0
2018-May-20 20:59N 49°02' W 005°04'816.1
2018-May-20 20:30N 48°57' W 005°13'816.2
2018-May-20 20:00N 48°53' W 005°23'816.4
2018-May-20 19:30N 48°49' W 005°34'816.2
2018-May-20 19:00N 48°42' W 005°41'816.8
2018-May-20 18:30N 48°35' W 005°47'816.0
2018-May-20 18:00N 48°28' W 005°53'714.1
2018-May-20 17:30N 48°21' W 005°57'816.3
2018-May-20 17:00N 48°14' W 006°03'2317.1
2018-May-20 15:38N 47°53' W 006°19'47910.5
2018-May-18 18:03N 40°19' W 009°51'113.8
2018-May-18 18:00N 40°18' W 009°52'814.2
2018-May-18 17:27N 40°11' W 009°56'614.3
2018-May-18 17:00N 40°05' W 009°59'714.3
2018-May-18 16:30N 39°59' W 010°02'714.2
2018-May-18 16:00N 39°52' W 010°06'1013.9
2018-May-18 15:16N 39°43' W 010°12'413.7
2018-May-18 15:00N 39°40' W 010°14'2113.5
2018-May-18 13:29N 39°21' W 010°26'613.2
2018-May-18 13:00N 39°16' W 010°29'713.3
2018-May-18 12:30N 39°09' W 010°32'713.5
2018-May-18 11:58N 39°03' W 010°35'7614.1
2018-May-18 06:33N 37°51' W 011°11'58415.9
2018-May-16 17:47N 28°50' W 015°32'415.7
2018-May-16 17:31N 28°46' W 015°35'815.7
2018-May-16 17:01N 28°39' W 015°39'915.6
2018-May-16 16:27N 28°32' W 015°44'715.7
2018-May-16 16:00N 28°26' W 015°49'715.5
2018-May-16 15:31N 28°20' W 015°55'815.4
2018-May-16 15:01N 28°15' W 016°00'815.3
2018-May-16 14:30N 28°09' W 016°06'  
2018-May-13 19:27N 10°22' W 017°01'916.1
2018-May-13 18:53N 10°14' W 016°57'616.3
2018-May-13 18:30N 10°09' W 016°54'816.3
2018-May-13 18:01N 10°02' W 016°50'816.4
2018-May-13 17:31N 09°54' W 016°46'816.5
2018-May-13 17:00N 09°47' W 016°42'816.5
2018-May-13 16:31N 09°40' W 016°38'916.1
2018-May-13 15:59N 09°32' W 016°34'816.0
2018-May-13 15:31N 09°25' W 016°31'815.8
2018-May-13 15:00N 09°18' W 016°27'816.2
2018-May-13 14:31N 09°11' W 016°23'816.7
2018-May-13 14:01N 09°04' W 016°19'816.5
2018-May-13 13:31N 08°57' W 016°15'816.4
2018-May-13 13:00N 08°50' W 016°11'1116.5
2018-May-13 12:22N 08°40' W 016°06'1116.5
2018-May-13 11:43N 08°31' W 016°01'416.6
2018-May-13 11:27N 08°27' W 015°59'1016.4
2018-May-13 10:49N 08°18' W 015°54'616.5
2018-May-13 10:26N 08°12' W 015°51'1616.5
2018-May-13 09:26N 07°58' W 015°42'1516.6
2018-May-13 08:30N 07°46' W 015°32'816.7
2018-May-13 08:00N 07°39' W 015°28'1416.4
2018-May-13 07:11N 07°28' W 015°19'316.2
2018-May-13 07:01N 07°26' W 015°18'  

Dump ship's entire track history